Time;durP1;ratioP1;P1;durP2;ratioP2;P2;SDS_P1;SDS_P2;PMS_P1;PMS_P2;Temp;Humidity;BMP_temperature;BMP_pressure;BME280_temperature;BME280_humidity;BME280_pressure;Samples;Min_cycle;Max_cycle;Signal;HPM_P1;HPM_P2
2021/07/13 00:02:25;;;;;;;0.30;0.10;;;23.20;99.90;;;;;;20920898;22;20248;-70
2021/07/13 00:12:30;;;;;;;0.20;0.20;;;23.00;99.90;;;;;;20908604;28;20708;-70
2021/07/13 00:22:34;;;;;;;0.20;0.03;;;22.60;99.90;;;;;;20906813;28;20279;-69
2021/07/13 00:32:39;;;;;;;0.40;0.30;;;22.50;99.90;;;;;;20905956;28;20666;-71
2021/07/13 00:42:44;;;;;;;0.20;0.00;;;22.40;99.90;;;;;;20905151;28;20225;-70
2021/07/13 00:52:50;;;;;;;0.20;0.13;;;22.20;99.90;;;;;;20906391;28;20537;-71
2021/07/13 01:02:56;;;;;;;0.37;0.10;;;21.90;99.90;;;;;;20916696;22;20253;-67
2021/07/13 01:13:06;;;;;;;0.73;0.20;;;21.80;99.90;;;;;;20903443;28;20608;-68
2021/07/13 01:23:20;;;;;;;0.20;0.00;;;21.60;99.90;;;;;;20903117;28;20573;-67
2021/07/13 01:33:28;;;;;;;0.20;0.10;;;21.30;99.90;;;;;;20902085;28;20215;-67
2021/07/13 01:43:35;;;;;;;0.30;0.20;;;21.10;99.90;;;;;;20900744;28;20221;-67
2021/07/13 01:53:40;;;;;;;1.50;0.20;;;20.80;99.90;;;;;;20900287;28;20211;-67
2021/07/13 02:03:45;;;;;;;0.20;0.10;;;20.70;99.90;;;;;;20900445;28;20419;-67
2021/07/13 02:13:50;;;;;;;0.20;0.10;;;20.30;99.90;;;;;;20899522;28;20216;-67
2021/07/13 02:23:54;;;;;;;0.33;0.07;;;20.30;99.90;;;;;;20899594;28;20515;-67
2021/07/13 02:34:02;;;;;;;0.20;0.17;;;20.10;99.90;;;;;;20899419;28;20193;-68
2021/07/13 02:44:08;;;;;;;0.20;0.17;;;19.90;99.90;;;;;;20904179;28;20221;-67
2021/07/13 02:54:13;;;;;;;0.40;0.23;;;19.80;99.90;;;;;;20914437;28;20225;-67
2021/07/13 03:04:19;;;;;;;0.20;0.10;;;19.50;99.90;;;;;;20926048;22;20244;-70
2021/07/13 03:14:25;;;;;;;1.40;0.20;;;18.80;99.90;;;;;;20913424;28;20498;-71
2021/07/13 03:24:30;;;;;;;0.23;0.10;;;18.80;99.90;;;;;;20912326;28;20221;-72
2021/07/13 03:34:35;;;;;;;0.30;0.20;;;18.80;99.90;;;;;;20912166;28;20541;-72
2021/07/13 03:44:41;;;;;;;2.53;0.57;;;18.80;99.90;;;;;;20892459;28;20232;-71
2021/07/13 03:54:46;;;;;;;0.20;0.10;;;19.00;99.90;;;;;;20839363;28;20233;-71
2021/07/13 04:04:49;;;;;;;0.27;0.07;;;19.10;99.90;;;;;;20891311;22;20288;-68
2021/07/13 04:14:54;;;;;;;0.20;0.00;;;18.70;99.90;;;;;;20918946;28;20217;-67
2021/07/13 04:24:58;;;;;;;28.30;0.67;;;18.80;99.90;;;;;;20908187;28;20230;-67
2021/07/13 04:35:04;;;;;;;0.30;0.20;;;18.50;99.90;;;;;;20906168;28;20193;-68
2021/07/13 04:45:09;;;;;;;1.17;0.70;;;18.60;99.90;;;;;;20904911;28;20774;-67
2021/07/13 04:55:17;;;;;;;0.20;0.17;;;18.40;99.90;;;;;;20903729;28;20617;-69
2021/07/13 05:05:21;;;;;;;1.57;0.77;;;18.40;99.90;;;;;;20902927;28;20586;-67
2021/07/13 05:15:26;;;;;;;0.40;0.30;;;18.50;99.90;;;;;;20902891;28;20296;-68
2021/07/13 05:25:33;;;;;;;0.33;0.30;;;18.60;99.90;;;;;;20901632;28;20293;-68
2021/07/13 05:35:38;;;;;;;0.40;0.23;;;18.80;99.90;;;;;;20901090;28;20193;-68
2021/07/13 05:45:43;;;;;;;1.00;0.40;;;18.90;99.90;;;;;;20899320;28;20225;-68
2021/07/13 05:55:48;;;;;;;1.07;0.53;;;18.90;99.90;;;;;;20900424;28;20754;-67
2021/07/13 06:05:52;;;;;;;0.30;0.20;;;19.30;99.90;;;;;;20899805;28;20316;-67
2021/07/13 06:15:57;;;;;;;0.50;0.30;;;19.20;99.90;;;;;;20897021;28;20367;-67
2021/07/13 06:26:00;;;;;;;0.73;0.70;;;19.40;99.90;;;;;;20897354;28;20697;-68
2021/07/13 06:36:05;;;;;;;3.03;1.50;;;19.70;99.90;;;;;;20896674;28;20221;-67
2021/07/13 06:46:09;;;;;;;1.27;0.77;;;20.10;99.90;;;;;;20896394;28;20315;-66
2021/07/13 06:56:15;;;;;;;0.47;0.33;;;20.20;99.90;;;;;;20911531;28;20734;-67
2021/07/13 07:06:19;;;;;;;0.63;0.53;;;20.50;99.90;;;;;;20894919;28;20308;-67
2021/07/13 07:16:24;;;;;;;0.20;0.10;;;20.70;99.90;;;;;;20893229;28;20221;-67
2021/07/13 07:26:27;;;;;;;7.77;0.37;;;20.90;99.90;;;;;;20908727;28;20189;-66
2021/07/13 07:36:32;;;;;;;0.40;0.30;;;21.20;99.90;;;;;;20920673;28;20574;-69
2021/07/13 07:46:41;;;;;;;0.60;0.43;;;21.40;99.90;;;;;;20910503;28;20205;-74
2021/07/13 07:56:46;;;;;;;0.47;0.40;;;22.00;99.90;;;;;;20901806;28;20194;-69
2021/07/13 08:06:51;;;;;;;0.20;0.20;;;22.40;99.90;;;;;;20903495;28;20233;-69
2021/07/13 08:16:56;;;;;;;1.33;1.17;;;23.10;99.90;;;;;;20907535;28;20237;-69
2021/07/13 08:27:00;;;;;;;1.70;0.43;;;23.70;99.90;;;;;;20906582;28;20197;-69
2021/07/13 08:37:06;;;;;;;0.30;0.30;;;23.80;99.90;;;;;;20910468;28;20307;-70
2021/07/13 08:47:14;;;;;;;2.70;0.57;;;24.10;99.90;;;;;;20912007;28;20206;-69
2021/07/13 08:57:19;;;;;;;3.80;1.85;;;23.90;99.90;;;;;;20904075;28;20210;-69
2021/07/13 09:07:23;;;;;;;0.80;0.80;;;24.20;99.90;;;;;;20902401;28;20239;-71
2021/07/13 09:17:37;;;;;;;0.65;0.65;;;24.20;99.90;;;;;;20901921;28;20212;-66
2021/07/13 09:27:41;;;;;;;2.70;0.65;;;24.20;99.90;;;;;;20902473;28;20202;-69
2021/07/13 09:37:47;;;;;;;0.20;0.10;;;24.50;99.90;;;;;;20900808;28;20733;-69
2021/07/13 09:47:53;;;;;;;0.20;0.20;;;24.40;99.90;;;;;;20894604;28;20198;-70
2021/07/13 09:58:14;;;;;;;0.47;0.30;;;24.50;99.90;;;;;;20898098;28;20737;-69
2021/07/13 10:08:19;;;;;;;2.42;0.30;;;24.60;99.90;;;;;;20899253;28;20221;-69
2021/07/13 10:18:24;;;;;;;0.60;0.57;;;24.80;99.90;;;;;;20899440;28;20584;-70
2021/07/13 10:28:34;;;;;;;1.23;0.75;;;24.90;99.90;;;;;;20898869;28;20628;-70
2021/07/13 10:38:38;;;;;;;1.23;0.40;;;25.10;99.90;;;;;;20895246;28;20304;-67
2021/07/13 10:48:42;;;;;;;0.52;0.52;;;24.80;99.90;;;;;;20897929;28;20216;-67
2021/07/13 10:58:52;;;;;;;0.82;0.50;;;25.30;99.90;;;;;;20896731;28;20221;-68
2021/07/13 11:08:58;;;;;;;0.82;0.57;;;25.20;99.90;;;;;;20852828;28;20253;-70
2021/07/13 11:19:07;;;;;;;0.50;0.40;;;26.10;99.90;;;;;;20874657;28;20221;-69
2021/07/13 11:29:18;;;;;;;1.17;0.35;;;26.70;99.90;;;;;;20891233;28;20194;-69
2021/07/13 11:39:29;;;;;;;1.15;0.85;;;27.70;99.90;;;;;;20906984;28;20221;-66
2021/07/13 11:49:35;;;;;;;0.30;0.20;;;27.70;99.90;;;;;;20898839;28;20529;-69
2021/07/13 11:59:41;;;;;;;1.10;0.82;;;28.20;99.90;;;;;;20904816;28;20614;-69
2021/07/13 12:09:45;;;;;;;0.75;0.60;;;28.50;99.90;;;;;;20906918;28;20288;-71
2021/07/13 12:19:50;;;;;;;0.93;0.80;;;29.20;99.90;;;;;;20905546;28;20259;-69
2021/07/13 12:29:54;;;;;;;1.02;0.60;;;29.60;99.90;;;;;;20901061;28;20208;-69
2021/07/13 12:40:10;;;;;;;1.33;0.40;;;29.80;99.90;;;;;;20900949;28;20328;-69
2021/07/13 12:50:16;;;;;;;0.50;0.47;;;29.90;99.90;;;;;;20901938;28;20217;-68
2021/07/13 13:00:27;;;;;;;0.77;0.70;;;30.40;99.90;;;;;;20905393;28;20251;-68
2021/07/13 13:10:31;;;;;;;1.10;0.70;;;30.70;99.90;;;;;;20911299;28;20509;-69
2021/07/13 13:20:37;;;;;;;1.27;0.40;;;31.10;99.90;;;;;;20899298;28;20228;-69
2021/07/13 13:30:42;;;;;;;1.10;0.55;;;31.30;99.90;;;;;;20898261;28;20242;-72
2021/07/13 13:40:47;;;;;;;0.80;0.50;;;31.20;99.90;;;;;;20898840;28;20307;-68
2021/07/13 13:50:50;;;;;;;0.60;0.52;;;31.00;99.90;;;;;;20897472;28;20376;-68
2021/07/13 14:01:14;;;;;;;1.33;0.35;;;31.80;99.90;;;;;;20898231;28;20750;-68
2021/07/13 14:11:19;;;;;;;2.15;0.50;;;31.70;99.90;;;;;;20897109;28;20204;-67
2021/07/13 14:21:25;;;;;;;1.00;0.90;;;31.60;99.90;;;;;;20894723;28;20588;-69
2021/07/13 14:31:28;;;;;;;1.63;0.50;;;31.90;99.90;;;;;;20896381;28;20189;-68
2021/07/13 14:41:34;;;;;;;0.47;0.40;;;32.40;99.90;;;;;;20900975;28;20307;-70
2021/07/13 14:51:37;;;;;;;4.63;0.60;;;32.40;99.90;;;;;;20910591;28;20283;-68
2021/07/13 15:01:43;;;;;;;2.20;0.50;;;33.10;99.90;;;;;;20914222;28;20731;-68
2021/07/13 15:11:47;;;;;;;0.40;0.40;;;33.20;99.90;;;;;;20910503;28;20235;-68
2021/07/13 15:21:52;;;;;;;1.45;0.40;;;32.40;99.90;;;;;;20908373;28;20217;-68
2021/07/13 15:31:56;;;;;;;3.13;1.45;;;32.50;99.90;;;;;;20907248;28;20669;-70
2021/07/13 15:42:05;;;;;;;0.82;0.70;;;32.90;99.90;;;;;;20907861;28;20570;-67
2021/07/13 15:52:09;;;;;;;0.68;0.47;;;33.50;99.90;;;;;;20904953;28;20193;-69
2021/07/13 16:02:14;;;;;;;0.85;0.63;;;33.30;99.90;;;;;;20895052;28;20324;-68
2021/07/13 16:12:18;;;;;;;0.93;0.75;;;33.50;99.90;;;;;;20901533;28;20209;-70
2021/07/13 16:22:23;;;;;;;1.17;0.40;;;32.90;99.90;;;;;;20852981;28;20225;-68
2021/07/13 16:32:28;;;;;;;0.80;0.50;;;32.70;99.90;;;;;;20902724;28;20924;-67
2021/07/13 16:42:33;;;;;;;0.93;0.90;;;33.20;99.90;;;;;;20898163;28;20224;-69
2021/07/13 16:52:37;;;;;;;0.80;0.80;;;32.80;99.90;;;;;;20898000;28;20678;-68
2021/07/13 17:02:55;;;;;;;2.33;0.57;;;32.60;99.90;;;;;;20900701;28;20240;-62
2021/07/13 17:13:02;;;;;;;0.68;0.50;;;31.50;99.90;;;;;;20898788;28;20491;-69
2021/07/13 17:23:07;;;;;;;1.65;0.68;;;32.00;99.90;;;;;;20898234;28;20240;-68
2021/07/13 17:33:15;;;;;;;1.15;0.93;;;32.40;99.90;;;;;;20908877;28;20197;-69
2021/07/13 17:43:20;;;;;;;7.43;0.70;;;31.50;99.90;;;;;;20896425;28;20229;-70
2021/07/13 17:53:34;;;;;;;3.30;0.40;;;31.00;99.90;;;;;;20897297;28;20284;-69
2021/07/13 18:03:41;;;;;;;1.90;0.98;;;31.10;99.90;;;;;;20897344;28;20236;-69
2021/07/13 18:13:45;;;;;;;1.58;0.75;;;30.80;99.90;;;;;;20894211;28;20304;-70
2021/07/13 18:23:50;;;;;;;0.50;0.45;;;30.30;99.90;;;;;;20895171;28;20624;-69
2021/07/13 18:33:54;;;;;;;0.73;0.45;;;30.60;99.90;;;;;;20891072;28;20196;-68
2021/07/13 18:43:59;;;;;;;1.15;0.47;;;29.60;99.90;;;;;;20891728;28;20228;-68
2021/07/13 18:54:03;;;;;;;1.50;0.85;;;27.60;99.90;;;;;;20892981;28;20212;-68
2021/07/13 19:04:08;;;;;;;2.83;1.10;;;27.80;99.90;;;;;;20893335;28;20237;-68
2021/07/13 19:14:12;;;;;;;0.80;0.50;;;26.80;99.90;;;;;;20892717;28;20229;-68
2021/07/13 19:24:17;;;;;;;0.60;0.52;;;25.90;99.90;;;;;;20895040;28;20229;-66
2021/07/13 19:34:36;;;;;;;0.60;0.57;;;25.40;99.90;;;;;;20907313;28;20318;-67
2021/07/13 19:44:41;;;;;;;1.55;0.90;;;24.80;99.90;;;;;;20906971;28;20263;-68
2021/07/13 19:54:44;;;;;;;5.63;0.68;;;24.30;99.90;;;;;;20906228;28;20280;-67
2021/07/13 20:04:49;;;;;;;0.60;0.40;;;24.20;99.90;;;;;;20905958;28;20257;-69
2021/07/13 20:14:53;;;;;;;0.40;0.30;;;24.00;99.90;;;;;;20904814;28;20281;-66
2021/07/13 20:24:58;;;;;;;0.83;0.53;;;23.60;99.90;;;;;;20902592;28;20345;-67
2021/07/13 20:35:01;;;;;;;0.50;0.40;;;23.50;99.90;;;;;;20902016;28;20198;-69
2021/07/13 20:45:07;;;;;;;0.70;0.70;;;23.20;99.90;;;;;;20902884;28;20316;-68
2021/07/13 20:55:12;;;;;;;4.20;0.53;;;23.00;99.90;;;;;;20901913;28;20217;-68
2021/07/13 21:05:18;;;;;;;0.67;0.20;;;23.00;99.90;;;;;;20901344;28;20237;-69
2021/07/13 21:15:21;;;;;;;0.30;0.30;;;22.70;99.90;;;;;;20904007;28;20563;-70
2021/07/13 21:25:27;;;;;;;0.40;0.30;;;22.70;99.90;;;;;;20903320;28;20250;-69
2021/07/13 21:35:31;;;;;;;0.30;0.27;;;22.70;99.90;;;;;;20902178;28;20208;-70
2021/07/13 21:45:36;;;;;;;0.73;0.50;;;22.60;99.90;;;;;;20902867;28;20231;-67
2021/07/13 21:55:41;;;;;;;0.20;0.17;;;22.40;99.90;;;;;;20933986;28;20202;-68
2021/07/13 22:05:46;;;;;;;0.50;0.43;;;22.40;99.90;;;;;;20902120;28;20237;-68
2021/07/13 22:15:49;;;;;;;0.40;0.30;;;22.50;99.90;;;;;;20915446;28;20225;-64
2021/07/13 22:25:55;;;;;;;0.53;0.50;;;22.30;99.90;;;;;;20897297;28;20760;-65
2021/07/13 22:35:59;;;;;;;0.20;0.20;;;22.20;99.90;;;;;;20899932;28;20194;-67
2021/07/13 22:46:05;;;;;;;0.27;0.20;;;22.20;99.90;;;;;;20899671;28;20249;-67
2021/07/13 22:56:08;;;;;;;0.20;0.10;;;22.20;99.90;;;;;;20898007;28;20198;-67
2021/07/13 23:06:14;;;;;;;2.00;0.20;;;22.10;99.90;;;;;;20912021;28;20621;-66
2021/07/13 23:16:19;;;;;;;4.13;0.33;;;22.10;99.90;;;;;;20914570;28;20194;-66
2021/07/13 23:26:24;;;;;;;0.20;0.07;;;21.90;99.90;;;;;;20914194;28;20284;-66
2021/07/13 23:36:27;;;;;;;1.00;0.30;;;21.90;99.90;;;;;;20912319;28;20208;-66
2021/07/13 23:46:32;;;;;;;0.20;0.10;;;21.80;99.90;;;;;;20909443;28;20229;-66
2021/07/13 23:56:36;;;;;;;2.13;0.37;;;21.70;99.90;;;;;;20911484;28;20273;-67
